Time;durP1;ratioP1;P1;durP2;ratioP2;P2;SDS_P1;SDS_P2;PMS_P1;PMS_P2;Temp;Humidity;BMP_temperature;BMP_pressure;BME280_temperature;BME280_humidity;BME280_pressure;Samples;Min_cycle;Max_cycle;Signal;HPM_P1;HPM_P2
2020/12/14 00:00:19;;;;;;;7.18;0.50;;;18.60;50.90;;;;;;5068319;28;20044;-46
2020/12/14 00:02:46;;;;;;;0.75;0.15;;;18.60;50.90;;;;;;5069133;28;20528;-48
2020/12/14 00:05:14;;;;;;;0.55;0.20;;;18.60;50.90;;;;;;5069330;28;20037;-46
2020/12/14 00:07:41;;;;;;;4.22;0.32;;;18.60;50.90;;;;;;5068976;28;20056;-46
2020/12/14 00:10:09;;;;;;;2.42;0.25;;;18.60;50.90;;;;;;5069676;28;20098;-46
2020/12/14 00:12:36;;;;;;;3.10;0.73;;;18.60;50.90;;;;;;5071001;28;20393;-46
2020/12/14 00:15:04;;;;;;;4.30;0.22;;;18.60;50.80;;;;;;5069184;28;20044;-47
2020/12/14 00:17:33;;;;;;;3.85;0.45;;;18.60;50.90;;;;;;5069179;28;20037;-52
2020/12/14 00:20:00;;;;;;;6.57;0.40;;;18.60;50.90;;;;;;5068872;28;20431;-46
2020/12/14 00:22:30;;;;;;;3.42;0.10;;;18.60;50.90;;;;;;5067769;28;20122;-51
2020/12/14 00:24:57;;;;;;;1.30;0.63;;;18.60;50.90;;;;;;5068672;28;20049;-48
2020/12/14 00:27:24;;;;;;;4.90;0.20;;;18.60;50.90;;;;;;5070050;28;20120;-49
2020/12/14 00:29:51;;;;;;;0.38;0.10;;;18.70;50.90;;;;;;5068928;28;20082;-56
2020/12/14 00:32:17;;;;;;;1.20;0.20;;;18.70;50.90;;;;;;5068399;28;20505;-48
2020/12/14 00:34:44;;;;;;;0.20;0.10;;;18.70;50.90;;;;;;5068400;28;20041;-48
2020/12/14 00:37:10;;;;;;;0.90;0.22;;;18.70;50.90;;;;;;5067368;28;20408;-51
2020/12/14 00:39:37;;;;;;;2.53;0.20;;;18.70;50.90;;;;;;5069421;28;20033;-54
2020/12/14 00:42:04;;;;;;;2.38;0.30;;;18.70;50.90;;;;;;5068168;28;20443;-47
2020/12/14 00:44:32;;;;;;;2.90;0.10;;;18.70;50.90;;;;;;5067743;28;20580;-51
2020/12/14 00:46:58;;;;;;;2.35;0.10;;;18.70;50.90;;;;;;5070059;28;20048;-48
2020/12/14 00:49:25;;;;;;;3.15;0.10;;;18.70;50.90;;;;;;5068679;28;20080;-49
2020/12/14 00:51:51;;;;;;;0.50;0.10;;;18.70;50.90;;;;;;5068481;28;20423;-55
2020/12/14 00:54:18;;;;;;;0.50;0.10;;;18.70;50.90;;;;;;5069984;28;20105;-55
2020/12/14 00:56:44;;;;;;;0.77;0.10;;;18.70;50.90;;;;;;5068483;28;20469;-53
2020/12/14 00:59:11;;;;;;;0.40;0.13;;;18.70;50.90;;;;;;5068975;28;20115;-52
2020/12/14 01:01:39;;;;;;;1.77;0.10;;;18.70;50.90;;;;;;5068765;28;20037;-51
2020/12/14 01:04:05;;;;;;;0.22;0.10;;;18.70;50.90;;;;;;5067343;28;20183;-51
2020/12/14 01:06:32;;;;;;;1.20;0.10;;;18.70;50.90;;;;;;5068954;28;20052;-50
2020/12/14 01:08:58;;;;;;;2.05;0.50;;;18.70;50.90;;;;;;5067858;28;20048;-48
2020/12/14 01:11:26;;;;;;;1.75;0.20;;;18.70;50.90;;;;;;5067796;28;20581;-52
2020/12/14 01:13:53;;;;;;;0.30;0.10;;;18.80;51.00;;;;;;5068839;28;20541;-49
2020/12/14 01:16:20;;;;;;;0.90;0.10;;;18.70;50.90;;;;;;5067073;28;20048;-51
2020/12/14 01:18:48;;;;;;;2.92;0.77;;;18.80;51.00;;;;;;5066843;28;20603;-52
2020/12/14 01:21:20;;;;;;;1.65;0.28;;;18.80;51.20;;;;;;5068579;28;20123;-51
2020/12/14 01:23:46;;;;;;;4.95;0.30;;;18.80;51.10;;;;;;5071288;28;20129;-52
2020/12/14 01:26:13;;;;;;;0.25;0.10;;;18.70;51.20;;;;;;5068007;28;20477;-50
2020/12/14 01:28:39;;;;;;;0.43;0.10;;;18.70;51.10;;;;;;5067997;28;20068;-52
2020/12/14 01:31:06;;;;;;;1.40;0.10;;;18.80;51.20;;;;;;5068027;28;20068;-54
2020/12/14 01:33:32;;;;;;;1.08;0.10;;;18.80;51.80;;;;;;5069660;28;20044;-51
2020/12/14 01:36:00;;;;;;;1.63;0.60;;;18.70;51.30;;;;;;5067453;28;20055;-48
2020/12/14 01:38:26;;;;;;;0.77;0.10;;;18.70;51.30;;;;;;5067938;28;20090;-49
2020/12/14 01:40:53;;;;;;;1.55;0.17;;;18.80;51.40;;;;;;5067292;28;20039;-50
2020/12/14 01:43:22;;;;;;;2.85;0.13;;;18.80;51.40;;;;;;5068156;28;20079;-54
2020/12/14 01:45:49;;;;;;;1.10;0.10;;;18.80;51.60;;;;;;5065425;28;20049;-58
2020/12/14 01:48:16;;;;;;;0.68;0.65;;;18.80;51.40;;;;;;5067770;28;20058;-58
2020/12/14 01:50:43;;;;;;;8.85;0.10;;;18.80;51.30;;;;;;5066018;28;20408;-51
2020/12/14 01:53:12;;;;;;;1.48;0.63;;;18.80;51.20;;;;;;5064860;28;20045;-53
2020/12/14 01:55:41;;;;;;;0.22;0.10;;;18.80;51.10;;;;;;5067835;28;20039;-54
2020/12/14 01:58:08;;;;;;;2.22;0.00;;;18.80;51.10;;;;;;5067613;28;25735;-54
2020/12/14 02:00:34;;;;;;;1.25;0.40;;;18.80;51.20;;;;;;5068373;28;20072;-54
2020/12/14 02:03:01;;;;;;;7.50;0.10;;;18.80;51.20;;;;;;5066211;28;20039;-54
2020/12/14 02:05:27;;;;;;;0.90;0.28;;;18.80;51.20;;;;;;5066554;28;20128;-55
2020/12/14 02:07:54;;;;;;;0.60;0.10;;;18.80;51.20;;;;;;5066709;28;20587;-57
2020/12/14 02:10:22;;;;;;;1.30;0.20;;;18.80;51.20;;;;;;5067202;28;20121;-56
2020/12/14 02:12:48;;;;;;;0.90;0.10;;;18.80;51.20;;;;;;5067524;28;20041;-54
2020/12/14 02:15:15;;;;;;;7.25;0.10;;;18.80;51.20;;;;;;5067634;28;20040;-55
2020/12/14 02:17:42;;;;;;;1.35;0.05;;;18.80;51.30;;;;;;5065450;28;20143;-54
2020/12/14 02:20:09;;;;;;;5.60;0.20;;;18.80;51.30;;;;;;5066138;28;20123;-56
2020/12/14 02:22:35;;;;;;;1.40;0.10;;;18.80;51.30;;;;;;5065630;28;20036;-55
2020/12/14 02:25:04;;;;;;;0.10;0.10;;;18.80;51.40;;;;;;5066615;28;20599;-58
2020/12/14 02:27:34;;;;;;;0.32;0.10;;;18.80;51.40;;;;;;5067901;28;20412;-51
2020/12/14 02:30:01;;;;;;;2.45;0.17;;;18.80;51.50;;;;;;5066132;28;20128;-53
2020/12/14 02:32:29;;;;;;;11.40;0.10;;;18.80;51.50;;;;;;5066449;28;20143;-54
2020/12/14 02:34:56;;;;;;;2.88;0.75;;;18.80;51.50;;;;;;5066612;28;20542;-52
2020/12/14 02:37:25;;;;;;;0.38;0.10;;;18.80;51.60;;;;;;5066600;28;20119;-54
2020/12/14 02:39:52;;;;;;;1.80;0.10;;;18.80;51.60;;;;;;5064483;28;20067;-54
2020/12/14 02:42:22;;;;;;;6.13;0.10;;;18.80;51.70;;;;;;5067649;28;20052;-56
2020/12/14 02:44:49;;;;;;;1.08;0.17;;;18.80;51.60;;;;;;5066593;28;20095;-54
2020/12/14 02:47:16;;;;;;;1.58;0.20;;;18.80;51.60;;;;;;5066182;28;20059;-56
2020/12/14 02:49:43;;;;;;;2.03;0.00;;;18.80;51.60;;;;;;5066474;28;20510;-55
2020/12/14 02:52:11;;;;;;;1.05;0.10;;;18.90;51.70;;;;;;5066375;28;20458;-49
2020/12/14 02:54:39;;;;;;;1.10;0.10;;;18.80;51.80;;;;;;5064590;28;20156;-52
2020/12/14 02:57:06;;;;;;;4.53;0.10;;;18.90;51.90;;;;;;5061915;28;20049;-55
2020/12/14 02:59:33;;;;;;;1.75;0.10;;;18.90;52.20;;;;;;5065907;28;20127;-49
2020/12/14 03:02:00;;;;;;;2.60;0.00;;;18.90;52.30;;;;;;5065400;28;20044;-53
2020/12/14 03:04:27;;;;;;;0.70;0.10;;;18.90;52.20;;;;;;5062788;28;20040;-53
2020/12/14 03:06:54;;;;;;;2.65;0.10;;;18.90;52.50;;;;;;5064267;28;20055;-54
2020/12/14 03:09:21;;;;;;;0.88;0.10;;;18.90;52.50;;;;;;5062776;28;20044;-51
2020/12/14 03:11:49;;;;;;;1.20;0.38;;;18.90;52.50;;;;;;5066354;28;20128;-54
2020/12/14 03:14:17;;;;;;;0.63;0.00;;;18.90;52.30;;;;;;5066322;28;20547;-53
2020/12/14 03:16:45;;;;;;;2.40;0.10;;;18.90;52.30;;;;;;5063551;28;20070;-50
2020/12/14 03:19:12;;;;;;;0.17;0.10;;;18.90;52.20;;;;;;5066266;28;20084;-54
2020/12/14 03:21:39;;;;;;;0.52;0.45;;;18.90;52.30;;;;;;5067080;28;20082;-53
2020/12/14 03:24:06;;;;;;;0.68;0.22;;;18.90;52.30;;;;;;5064650;28;20076;-53
2020/12/14 03:26:32;;;;;;;0.22;0.03;;;18.90;52.30;;;;;;5065641;28;20384;-52
2020/12/14 03:29:00;;;;;;;13.00;0.10;;;18.90;52.50;;;;;;5066602;28;20149;-55
2020/12/14 03:31:27;;;;;;;0.30;0.00;;;18.90;52.60;;;;;;5065501;28;20032;-57
2020/12/14 03:33:55;;;;;;;1.98;0.10;;;18.90;52.60;;;;;;5067082;28;20071;-56
2020/12/14 03:36:22;;;;;;;0.52;0.10;;;18.90;52.70;;;;;;5066929;28;20115;-59
2020/12/14 03:38:49;;;;;;;2.20;0.05;;;18.90;52.60;;;;;;5066400;28;20055;-54
2020/12/14 03:41:15;;;;;;;1.17;0.20;;;18.90;52.60;;;;;;5065677;28;20480;-56
2020/12/14 03:43:42;;;;;;;2.58;0.00;;;19.00;52.70;;;;;;5066672;28;20090;-56
2020/12/14 03:46:14;;;;;;;1.45;0.00;;;18.90;52.70;;;;;;5066307;28;20432;-55
2020/12/14 03:48:41;;;;;;;1.45;0.10;;;19.00;52.70;;;;;;5067811;28;20071;-54
2020/12/14 03:51:09;;;;;;;0.10;0.00;;;19.00;52.90;;;;;;5067042;28;20043;-53
2020/12/14 03:53:36;;;;;;;0.68;0.00;;;19.00;52.70;;;;;;5066407;28;20133;-57
2020/12/14 03:56:03;;;;;;;3.10;0.03;;;19.00;52.80;;;;;;5066606;28;20431;-54
2020/12/14 03:58:29;;;;;;;0.28;0.20;;;19.00;52.80;;;;;;5065625;28;20044;-52
2020/12/14 04:00:56;;;;;;;1.75;0.15;;;19.00;53.00;;;;;;5066822;28;20063;-54
2020/12/14 04:03:23;;;;;;;0.10;0.00;;;19.00;52.80;;;;;;5067582;28;20045;-59
2020/12/14 04:05:49;;;;;;;2.67;0.10;;;19.00;52.80;;;;;;5064807;28;20052;-58
2020/12/14 04:08:17;;;;;;;0.57;0.00;;;19.00;52.80;;;;;;5066142;28;20095;-57
2020/12/14 04:10:44;;;;;;;0.68;0.10;;;19.00;52.90;;;;;;5065914;28;20199;-56
2020/12/14 04:13:10;;;;;;;0.10;0.00;;;19.00;52.70;;;;;;5065421;28;20047;-56
2020/12/14 04:15:37;;;;;;;1.70;0.10;;;19.00;52.90;;;;;;5069887;28;20063;-57
2020/12/14 04:18:04;;;;;;;0.17;0.05;;;19.00;53.30;;;;;;5068706;28;20076;-58
2020/12/14 04:20:31;;;;;;;1.48;0.10;;;19.00;53.10;;;;;;5069390;28;20029;-58
2020/12/14 04:22:57;;;;;;;1.05;0.13;;;19.10;53.00;;;;;;5069000;28;20041;-59
2020/12/14 04:25:25;;;;;;;0.70;0.30;;;19.00;53.00;;;;;;5069728;28;20043;-58
2020/12/14 04:27:51;;;;;;;0.00;0.00;;;19.00;52.90;;;;;;5069654;28;20072;-58
2020/12/14 04:30:18;;;;;;;0.15;0.10;;;19.00;52.90;;;;;;5070499;28;20090;-56
2020/12/14 04:32:45;;;;;;;0.10;0.10;;;19.10;52.90;;;;;;5069396;28;20109;-57
2020/12/14 04:35:12;;;;;;;0.10;0.00;;;19.10;53.20;;;;;;5068322;28;20040;-58
2020/12/14 04:37:38;;;;;;;0.68;0.10;;;19.10;53.10;;;;;;5069209;28;20048;-59
2020/12/14 04:40:05;;;;;;;0.20;0.00;;;19.10;53.20;;;;;;5069127;28;20137;-50
2020/12/14 04:42:33;;;;;;;1.05;0.08;;;19.10;53.20;;;;;;5066563;28;20045;-51
2020/12/14 04:45:00;;;;;;;0.20;0.00;;;19.10;53.40;;;;;;5064862;28;20071;-54
2020/12/14 04:47:28;;;;;;;3.03;0.22;;;19.10;53.20;;;;;;5065261;28;20101;-51
2020/12/14 04:49:56;;;;;;;0.10;0.08;;;19.10;53.30;;;;;;5064213;28;20047;-52
2020/12/14 04:52:23;;;;;;;0.20;0.00;;;19.10;53.40;;;;;;5061847;28;20048;-52
2020/12/14 04:54:50;;;;;;;0.55;0.10;;;19.10;53.50;;;;;;5069690;28;20412;-51
2020/12/14 04:57:21;;;;;;;1.65;0.00;;;19.10;53.40;;;;;;5069357;28;20048;-51
2020/12/14 04:59:50;;;;;;;0.50;0.10;;;19.10;53.60;;;;;;5068446;28;20052;-51
2020/12/14 05:02:17;;;;;;;0.65;0.25;;;19.10;53.60;;;;;;5068726;28;20052;-52
2020/12/14 05:04:44;;;;;;;0.85;0.20;;;19.10;53.50;;;;;;5067593;28;20064;-52
2020/12/14 05:07:12;;;;;;;0.20;0.08;;;19.10;53.50;;;;;;5068598;28;20419;-51
2020/12/14 05:09:40;;;;;;;0.40;0.00;;;19.10;53.50;;;;;;5069841;28;20063;-52
2020/12/14 05:12:17;;;;;;;0.10;0.00;;;19.20;53.80;;;;;;5068066;28;20483;-50
2020/12/14 05:14:44;;;;;;;0.45;0.30;;;19.20;53.60;;;;;;5062993;28;20587;-50
2020/12/14 05:17:23;;;;;;;0.20;0.00;;;19.10;53.60;;;;;;5066623;28;20048;-53
2020/12/14 05:19:49;;;;;;;0.20;0.00;;;19.20;53.80;;;;;;5066226;28;20064;-54
2020/12/14 05:22:17;;;;;;;0.73;0.00;;;19.10;53.80;;;;;;5064401;28;20101;-54
2020/12/14 05:24:53;;;;;;;0.38;0.03;;;19.10;53.70;;;;;;5069678;28;20076;-55
2020/12/14 05:27:31;;;;;;;0.05;0.00;;;19.20;53.90;;;;;;5069077;28;20523;-54
2020/12/14 05:29:58;;;;;;;0.82;0.00;;;19.20;53.90;;;;;;5067801;28;20047;-51
2020/12/14 05:32:27;;;;;;;0.25;0.00;;;19.10;53.90;;;;;;5068138;28;20036;-54
2020/12/14 05:34:54;;;;;;;1.13;0.38;;;19.20;53.90;;;;;;5067563;28;20052;-50
2020/12/14 05:37:20;;;;;;;0.40;0.00;;;19.20;54.10;;;;;;5067892;28;20504;-52
2020/12/14 05:39:47;;;;;;;0.10;0.00;;;19.20;54.00;;;;;;5069530;28;20060;-49
2020/12/14 05:42:16;;;;;;;0.80;0.10;;;19.20;54.20;;;;;;5068565;28;20083;-51
2020/12/14 05:44:44;;;;;;;0.98;0.00;;;19.20;54.10;;;;;;5067566;28;20512;-55
2020/12/14 05:47:26;;;;;;;0.43;0.00;;;19.20;54.20;;;;;;5067595;28;20067;-53
2020/12/14 05:49:53;;;;;;;1.55;0.00;;;19.30;54.40;;;;;;5060113;28;20831;-50
2020/12/14 05:52:23;;;;;;;0.10;0.00;;;19.20;54.40;;;;;;5069081;28;20076;-53
2020/12/14 05:54:54;;;;;;;1.77;0.10;;;19.20;54.30;;;;;;5083195;28;20165;-59
2020/12/14 05:57:32;;;;;;;0.00;0.00;;;19.20;53.90;;;;;;5080395;28;20098;-52
2020/12/14 06:00:01;;;;;;;0.30;0.03;;;19.30;53.90;;;;;;5078938;28;20102;-53
2020/12/14 06:02:29;;;;;;;1.88;0.15;;;19.20;53.60;;;;;;5076654;28;20127;-50
2020/12/14 06:04:57;;;;;;;1.05;0.00;;;19.30;53.50;;;;;;5079409;28;20056;-51
2020/12/14 06:07:26;;;;;;;0.50;0.10;;;19.30;53.50;;;;;;5081008;28;20044;-54
2020/12/14 06:10:03;;;;;;;2.65;0.10;;;19.30;53.50;;;;;;5081047;28;20566;-55
2020/12/14 06:12:31;;;;;;;0.38;0.00;;;19.30;53.50;;;;;;5079064;28;20044;-50
2020/12/14 06:15:00;;;;;;;0.40;0.00;;;19.30;53.50;;;;;;5081029;28;20580;-50
2020/12/14 06:17:28;;;;;;;0.32;0.00;;;19.30;53.60;;;;;;5081049;28;20126;-47
2020/12/14 06:20:02;;;;;;;0.75;0.00;;;19.30;54.30;;;;;;5079255;28;20076;-47
2020/12/14 06:22:31;;;;;;;0.30;0.00;;;19.30;53.70;;;;;;5073752;28;20044;-52
2020/12/14 06:25:01;;;;;;;0.05;0.00;;;19.30;53.60;;;;;;5063146;28;20102;-52
2020/12/14 06:27:29;;;;;;;1.33;0.10;;;19.30;53.60;;;;;;5068243;28;20139;-48
2020/12/14 06:29:56;;;;;;;1.65;0.03;;;19.30;53.60;;;;;;5065329;28;20120;-51
2020/12/14 06:32:39;;;;;;;0.30;0.00;;;19.30;53.60;;;;;;5066309;28;20778;-49
2020/12/14 06:35:14;;;;;;;0.52;0.10;;;19.40;53.60;;;;;;5061603;28;20131;-52
2020/12/14 06:37:49;;;;;;;1.25;0.10;;;19.30;53.50;;;;;;5066279;28;20460;-48
2020/12/14 06:40:18;;;;;;;2.22;0.10;;;19.40;53.60;;;;;;5063807;28;20044;-47
2020/12/14 06:42:45;;;;;;;1.48;0.00;;;19.30;53.50;;;;;;5068408;28;20122;-47
2020/12/14 06:45:14;;;;;;;0.85;0.00;;;19.30;53.50;;;;;;5065704;28;20055;-47
2020/12/14 06:47:49;;;;;;;0.73;0.10;;;19.40;53.60;;;;;;5065914;28;20033;-47
2020/12/14 06:50:37;;;;;;;3.42;0.30;;;19.40;53.60;;;;;;5066742;28;20489;-49
2020/12/14 06:53:05;;;;;;;0.00;0.00;;;19.40;53.60;;;;;;5061094;28;20512;-50
2020/12/14 06:55:46;;;;;;;0.85;0.10;;;19.30;53.40;;;;;;5067069;28;20677;-50
2020/12/14 06:58:32;;;;;;;0.65;0.10;;;19.40;53.50;;;;;;5066458;28;20512;-47
2020/12/14 07:00:59;;;;;;;0.68;0.05;;;19.40;53.30;;;;;;5065087;28;20601;-47
2020/12/14 07:03:39;;;;;;;0.70;0.08;;;19.30;53.30;;;;;;5067811;28;20491;-47
2020/12/14 07:06:07;;;;;;;0.38;0.10;;;19.40;53.40;;;;;;5063804;28;20052;-49
2020/12/14 07:08:41;;;;;;;0.40;0.05;;;19.40;53.30;;;;;;5065768;28;20048;-49
2020/12/14 07:11:16;;;;;;;0.17;0.10;;;19.40;53.30;;;;;;5066493;28;20052;-50
2020/12/14 07:13:44;;;;;;;0.40;0.08;;;19.40;53.30;;;;;;5066586;28;20040;-51
2020/12/14 07:16:12;;;;;;;0.20;0.10;;;19.30;53.20;;;;;;5065306;28;20047;-50
2020/12/14 07:18:39;;;;;;;0.52;0.17;;;19.30;53.10;;;;;;5068082;28;20087;-47
2020/12/14 07:21:12;;;;;;;1.08;0.20;;;19.30;53.10;;;;;;5048034;28;20504;-50
2020/12/14 07:23:40;;;;;;;1.73;0.00;;;19.40;53.10;;;;;;5065388;28;20052;-52
2020/12/14 07:26:07;;;;;;;0.38;0.00;;;19.30;53.10;;;;;;5065748;28;20124;-51
2020/12/14 07:28:47;;;;;;;0.35;0.17;;;19.30;53.10;;;;;;5066117;28;20032;-48
2020/12/14 07:31:18;;;;;;;1.85;0.10;;;19.40;53.20;;;;;;5066418;28;20779;-49
2020/12/14 07:33:54;;;;;;;0.10;0.00;;;19.30;53.10;;;;;;5066867;28;20044;-51
2020/12/14 07:36:23;;;;;;;1.58;0.00;;;19.40;53.20;;;;;;5066933;28;20044;-50
2020/12/14 07:38:53;;;;;;;0.20;0.00;;;19.30;53.10;;;;;;5062908;28;20049;-53
2020/12/14 07:41:21;;;;;;;3.83;0.10;;;19.30;53.10;;;;;;5064760;28;20072;-51
2020/12/14 07:43:50;;;;;;;0.45;0.00;;;19.40;53.20;;;;;;5065659;28;20133;-50
2020/12/14 07:46:27;;;;;;;0.40;0.10;;;19.30;53.10;;;;;;5065625;28;20782;-49
2020/12/14 07:48:58;;;;;;;0.13;0.03;;;19.40;52.90;;;;;;5062868;28;20049;-49
2020/12/14 07:51:27;;;;;;;0.32;0.30;;;19.40;52.90;;;;;;5069981;28;20048;-50
2020/12/14 07:54:02;;;;;;;1.10;0.22;;;19.40;53.00;;;;;;5066854;28;20427;-52
2020/12/14 07:56:29;;;;;;;0.90;0.13;;;19.30;53.00;;;;;;5066188;28;20468;-49
2020/12/14 07:58:56;;;;;;;0.20;0.10;;;19.30;52.90;;;;;;5068623;28;20044;-49
2020/12/14 08:01:22;;;;;;;0.40;0.30;;;19.30;52.80;;;;;;5066046;28;20132;-50
2020/12/14 08:03:49;;;;;;;1.92;0.10;;;19.30;52.80;;;;;;5065302;28;20041;-47
2020/12/14 08:06:17;;;;;;;2.05;0.57;;;19.30;52.80;;;;;;5068627;28;20052;-47
2020/12/14 08:08:48;;;;;;;0.93;0.10;;;19.30;52.80;;;;;;5068941;28;20045;-51
2020/12/14 08:11:16;;;;;;;0.88;0.20;;;19.30;52.50;;;;;;5066912;28;20145;-48
2020/12/14 08:13:44;;;;;;;0.60;0.40;;;19.30;52.60;;;;;;5065935;28;20561;-48
2020/12/14 08:16:16;;;;;;;1.20;0.15;;;19.30;52.70;;;;;;5066643;28;20623;-51
2020/12/14 08:18:45;;;;;;;0.93;0.35;;;19.40;52.50;;;;;;5068892;28;20067;-47
2020/12/14 08:21:23;;;;;;;1.77;0.13;;;19.30;52.70;;;;;;5065889;28;20393;-50
2020/12/14 08:23:51;;;;;;;1.25;0.10;;;19.40;52.60;;;;;;5065263;28;20159;-55
2020/12/14 08:26:25;;;;;;;10.48;1.00;;;19.30;52.30;;;;;;5066445;28;20050;-47
2020/12/14 08:29:00;;;;;;;1.90;0.82;;;19.40;52.20;;;;;;5063577;28;20051;-49
2020/12/14 08:31:27;;;;;;;3.08;0.30;;;19.40;51.70;;;;;;5068659;28;20053;-59
2020/12/14 08:33:56;;;;;;;6.97;4.28;;;19.30;51.50;;;;;;5067294;28;20048;-48
2020/12/14 08:36:24;;;;;;;1.30;0.20;;;19.30;51.30;;;;;;5068564;28;20071;-49
2020/12/14 08:38:52;;;;;;;1.80;0.20;;;19.30;51.00;;;;;;5067030;28;20043;-52
2020/12/14 08:41:21;;;;;;;4.95;0.88;;;19.30;50.80;;;;;;5064036;28;20062;-48
2020/12/14 08:43:53;;;;;;;1.33;0.20;;;19.30;50.80;;;;;;5067222;28;20102;-48
2020/12/14 08:46:21;;;;;;;6.90;0.30;;;19.20;50.80;;;;;;5066638;28;20127;-53
2020/12/14 08:48:49;;;;;;;1.88;0.30;;;19.20;50.70;;;;;;5060248;28;20147;-50
2020/12/14 08:51:19;;;;;;;2.60;0.10;;;19.20;50.90;;;;;;5067923;28;20052;-47
2020/12/14 08:53:49;;;;;;;1.92;0.10;;;19.10;51.30;;;;;;5063887;28;20060;-55
2020/12/14 08:56:18;;;;;;;2.17;0.32;;;19.10;50.70;;;;;;5068201;28;20036;-48
2020/12/14 08:58:47;;;;;;;1.10;0.57;;;19.10;50.60;;;;;;5061578;28;20059;-50
2020/12/14 09:01:15;;;;;;;2.97;0.30;;;19.10;50.70;;;;;;5067407;28;20135;-46
2020/12/14 09:03:56;;;;;;;2.70;0.35;;;19.00;50.60;;;;;;5068342;28;20056;-46
2020/12/14 09:06:28;;;;;;;3.33;0.10;;;19.00;50.60;;;;;;5067908;28;20423;-50
2020/12/14 09:09:09;;;;;;;7.05;2.47;;;18.90;50.70;;;;;;5067552;28;20044;-47
2020/12/14 09:11:48;;;;;;;3.97;0.30;;;18.90;50.70;;;;;;5066291;28;20051;-47
2020/12/14 09:14:19;;;;;;;3.20;0.90;;;18.80;50.70;;;;;;5067569;28;20580;-48
2020/12/14 09:16:49;;;;;;;3.05;0.20;;;18.80;50.80;;;;;;5061127;28;20069;-49
2020/12/14 09:19:20;;;;;;;0.70;0.17;;;18.70;50.90;;;;;;5067091;28;20136;-49
2020/12/14 09:21:46;;;;;;;4.05;0.40;;;18.70;51.00;;;;;;5069062;28;20140;-49
2020/12/14 09:24:17;;;;;;;4.90;0.40;;;18.60;51.10;;;;;;5059459;28;20048;-46
2020/12/14 09:26:45;;;;;;;1.17;0.10;;;18.60;51.40;;;;;;5072800;28;20397;-48
2020/12/14 09:29:12;;;;;;;2.25;0.60;;;18.50;51.50;;;;;;5076602;28;20929;-49
2020/12/14 09:31:40;;;;;;;0.40;0.38;;;18.50;51.70;;;;;;5075069;28;20054;-53
2020/12/14 09:34:07;;;;;;;3.53;0.20;;;18.50;51.70;;;;;;5075889;28;20039;-50
2020/12/14 09:36:33;;;;;;;3.88;0.85;;;18.40;51.70;;;;;;5079572;28;20493;-52
2020/12/14 09:39:00;;;;;;;3.42;0.20;;;18.50;51.70;;;;;;5076234;28;20042;-51
2020/12/14 09:41:31;;;;;;;0.45;0.10;;;18.40;51.80;;;;;;5078506;28;20453;-48
2020/12/14 09:44:00;;;;;;;3.15;0.30;;;18.40;51.90;;;;;;5079292;28;20476;-50
2020/12/14 09:46:27;;;;;;;1.55;0.20;;;18.40;52.00;;;;;;5079372;28;20045;-48
2020/12/14 09:48:54;;;;;;;2.97;0.32;;;18.30;52.10;;;;;;5076649;28;20533;-48
2020/12/14 09:51:20;;;;;;;3.47;0.10;;;18.30;52.00;;;;;;5080742;28;20161;-48
2020/12/14 09:53:47;;;;;;;1.60;0.10;;;18.30;51.90;;;;;;5077075;28;20049;-48
2020/12/14 09:56:14;;;;;;;3.72;0.10;;;18.30;51.90;;;;;;5073826;28;20044;-61
2020/12/14 09:58:40;;;;;;;3.15;0.10;;;18.20;52.00;;;;;;5067289;28;20048;-47
2020/12/14 10:01:08;;;;;;;1.73;0.17;;;18.20;52.10;;;;;;5066600;28;20048;-49
2020/12/14 10:03:34;;;;;;;0.30;0.10;;;18.20;52.20;;;;;;5068582;28;20206;-49
2020/12/14 10:06:02;;;;;;;3.05;0.30;;;18.20;52.20;;;;;;5066092;28;20123;-51
2020/12/14 10:08:28;;;;;;;1.55;0.20;;;18.10;52.20;;;;;;5066640;28;20060;-54
2020/12/14 10:10:56;;;;;;;1.45;0.25;;;18.10;52.40;;;;;;5064813;28;20543;-59
2020/12/14 10:13:23;;;;;;;3.38;0.20;;;18.10;52.50;;;;;;5065603;28;20041;-63
2020/12/14 10:15:50;;;;;;;3.33;0.20;;;18.10;52.60;;;;;;5068313;28;20046;-54
2020/12/14 10:18:17;;;;;;;2.00;0.63;;;18.10;52.80;;;;;;5067132;28;20067;-58
2020/12/14 10:20:44;;;;;;;1.55;0.60;;;18.00;52.90;;;;;;5066586;28;20084;-61
2020/12/14 10:23:11;;;;;;;1.90;0.10;;;18.00;53.00;;;;;;5066745;28;20151;-48
2020/12/14 10:25:38;;;;;;;5.00;0.63;;;17.90;53.20;;;;;;5061955;28;20041;-47
2020/12/14 10:28:05;;;;;;;2.92;0.10;;;17.90;53.40;;;;;;5067444;28;20044;-53
2020/12/14 10:30:32;;;;;;;4.03;0.43;;;17.90;53.40;;;;;;5061652;28;20047;-49
2020/12/14 10:32:59;;;;;;;0.88;0.10;;;18.00;53.50;;;;;;5061622;28;20106;-47
2020/12/14 10:35:27;;;;;;;4.57;0.17;;;18.00;53.50;;;;;;5065162;28;20036;-52
2020/12/14 10:37:55;;;;;;;3.47;0.30;;;18.00;53.50;;;;;;5066302;28;20040;-53
2020/12/14 10:40:22;;;;;;;1.40;0.32;;;18.00;53.60;;;;;;5061953;28;20040;-48
2020/12/14 10:42:48;;;;;;;6.18;0.85;;;18.00;53.70;;;;;;5064888;28;20056;-49
2020/12/14 10:45:15;;;;;;;6.72;0.10;;;18.00;53.60;;;;;;5066686;28;20415;-47
2020/12/14 10:47:42;;;;;;;1.33;0.10;;;18.10;53.90;;;;;;5066630;28;20032;-45
2020/12/14 10:50:10;;;;;;;1.17;0.10;;;18.10;54.20;;;;;;5066455;28;20151;-45
2020/12/14 10:52:37;;;;;;;4.13;0.17;;;18.10;54.30;;;;;;5066511;28;20400;-61
2020/12/14 10:55:05;;;;;;;1.60;0.10;;;18.20;54.40;;;;;;5067106;28;20040;-44
2020/12/14 10:57:31;;;;;;;1.48;0.10;;;18.20;54.40;;;;;;5068296;28;20070;-44
2020/12/14 11:00:06;;;;;;;1.63;0.10;;;18.30;54.60;;;;;;5067722;28;20047;-42
2020/12/14 11:02:34;;;;;;;1.00;0.15;;;18.30;54.70;;;;;;5068597;28;20052;-42
2020/12/14 11:05:01;;;;;;;3.38;0.20;;;18.40;54.80;;;;;;5065879;28;20072;-43
2020/12/14 11:07:27;;;;;;;2.15;0.10;;;18.40;54.90;;;;;;5067372;28;20190;-46
2020/12/14 11:09:55;;;;;;;1.85;0.30;;;18.40;55.50;;;;;;5068687;28;20051;-46
2020/12/14 11:12:21;;;;;;;5.43;0.38;;;18.50;55.00;;;;;;5068429;28;20040;-48
2020/12/14 11:14:48;;;;;;;0.15;0.05;;;18.60;55.10;;;;;;5067271;28;20041;-50
2020/12/14 11:17:35;;;;;;;0.57;0.10;;;18.60;55.10;;;;;;5065864;28;20134;-46
2020/12/14 11:20:20;;;;;;;1.45;0.10;;;18.60;55.10;;;;;;5068327;28;20048;-54
2020/12/14 11:23:06;;;;;;;2.92;0.52;;;18.70;55.10;;;;;;5068033;28;20574;-55
2020/12/14 11:25:34;;;;;;;2.03;0.20;;;18.70;55.10;;;;;;5072034;28;20049;-48
2020/12/14 11:28:02;;;;;;;0.22;0.10;;;18.70;55.10;;;;;;5071925;28;20048;-46
2020/12/14 11:30:28;;;;;;;1.00;0.10;;;18.80;55.20;;;;;;5071035;28;20080;-43
2020/12/14 11:32:55;;;;;;;0.20;0.10;;;18.80;55.20;;;;;;5063091;28;20065;-48
2020/12/14 11:35:22;;;;;;;0.75;0.10;;;18.80;55.20;;;;;;5068233;28;20045;-42
2020/12/14 11:37:49;;;;;;;2.55;0.20;;;18.80;55.20;;;;;;5070547;28;20041;-41
2020/12/14 11:40:15;;;;;;;0.55;0.10;;;18.90;55.20;;;;;;5070281;28;20061;-42
2020/12/14 11:42:43;;;;;;;0.65;0.43;;;18.90;55.20;;;;;;5071863;28;20045;-45
2020/12/14 11:45:10;;;;;;;1.35;0.10;;;18.90;55.30;;;;;;5070136;28;20109;-45
2020/12/14 11:47:37;;;;;;;2.40;0.10;;;19.00;55.40;;;;;;5069489;28;20035;-43
2020/12/14 11:50:04;;;;;;;0.20;0.10;;;19.00;55.50;;;;;;5068546;28;20067;-44
2020/12/14 11:52:31;;;;;;;0.20;0.10;;;19.00;55.50;;;;;;5070058;28;20040;-44
2020/12/14 11:54:57;;;;;;;0.17;0.10;;;19.00;55.50;;;;;;5064116;28;20052;-45
2020/12/14 11:57:24;;;;;;;1.88;0.10;;;19.10;55.50;;;;;;5071472;28;20045;-43
2020/12/14 11:59:51;;;;;;;0.90;0.10;;;19.10;55.50;;;;;;5069786;28;20067;-43
2020/12/14 12:02:18;;;;;;;0.90;0.20;;;19.10;55.50;;;;;;5070059;28;20683;-44
2020/12/14 12:04:46;;;;;;;0.50;0.30;;;19.10;55.50;;;;;;5070621;28;20135;-45
2020/12/14 12:07:13;;;;;;;2.38;0.10;;;19.10;55.60;;;;;;5070083;28;20429;-47
2020/12/14 12:09:41;;;;;;;1.67;0.10;;;19.20;55.60;;;;;;5071687;28;20454;-47
2020/12/14 12:12:08;;;;;;;1.23;0.17;;;19.20;55.60;;;;;;5067513;28;20556;-43
2020/12/14 12:14:34;;;;;;;1.90;0.10;;;19.20;55.60;;;;;;5069835;28;20047;-46
2020/12/14 12:17:02;;;;;;;0.50;0.10;;;19.20;55.60;;;;;;5069926;28;20159;-47
2020/12/14 12:19:29;;;;;;;0.57;0.10;;;19.30;55.70;;;;;;5066284;28;20045;-48
2020/12/14 12:21:56;;;;;;;0.68;0.15;;;19.30;55.60;;;;;;5069832;28;20469;-54
2020/12/14 12:24:23;;;;;;;1.15;0.10;;;19.30;55.50;;;;;;5069621;28;20049;-47
2020/12/14 12:26:51;;;;;;;0.40;0.10;;;19.30;55.50;;;;;;5069078;28;20049;-49
2020/12/14 12:29:17;;;;;;;0.10;0.10;;;19.40;55.30;;;;;;5069154;28;20044;-44
2020/12/14 12:31:49;;;;;;;2.30;0.10;;;19.40;55.40;;;;;;5069202;28;20123;-44
2020/12/14 12:34:16;;;;;;;1.80;0.20;;;19.40;55.50;;;;;;5069268;28;20091;-44
2020/12/14 12:36:49;;;;;;;1.02;0.30;;;19.40;55.50;;;;;;5069906;28;20057;-44
2020/12/14 12:39:15;;;;;;;1.90;0.10;;;19.40;55.50;;;;;;5068822;28;20048;-44
2020/12/14 12:41:45;;;;;;;0.30;0.10;;;19.40;55.50;;;;;;5068859;28;20448;-46
2020/12/14 12:44:12;;;;;;;0.20;0.10;;;19.50;55.50;;;;;;5068090;28;20055;-44
2020/12/14 12:46:39;;;;;;;1.08;0.10;;;19.50;55.50;;;;;;5069353;28;20064;-43
2020/12/14 12:49:06;;;;;;;2.70;0.10;;;19.50;55.50;;;;;;5068637;28;20056;-45
2020/12/14 12:51:34;;;;;;;0.13;0.10;;;19.50;55.50;;;;;;5069314;28;20041;-45